Time;durP1;ratioP1;P1;durP2;ratioP2;P2;SDS_P1;SDS_P2;PMS_P1;PMS_P2;Temp;Humidity;BMP_temperature;BMP_pressure;BME280_temperature;BME280_humidity;BME280_pressure;Samples;Min_cycle;Max_cycle;Signal;HPM_P1;HPM_P2
2023/06/10 00:01:57;;;;;;;;;;;23.80;86.00;;;;;;8471769;27;19924;-72
2023/06/10 00:05:59;;;;;;;;;;;23.80;86.00;;;;;;8477351;27;19935;-71
2023/06/10 00:10:05;;;;;;;;;;;23.70;85.90;;;;;;8483438;27;19927;-71
2023/06/10 00:14:06;;;;;;;;;;;23.70;85.90;;;;;;8469558;27;20436;-72
2023/06/10 00:18:09;;;;;;;;;;;23.60;85.80;;;;;;8479853;27;19923;-71
2023/06/10 00:22:11;;;;;;;;;;;23.60;85.80;;;;;;8469017;27;19927;-71
2023/06/10 00:26:13;;;;;;;;;;;23.50;86.30;;;;;;8472771;27;19966;-72
2023/06/10 00:30:15;;;;;;;;;;;23.50;85.70;;;;;;8474096;27;19975;-71
2023/06/10 00:44:23;;;;;;;;;;;23.30;85.50;;;;;;8462022;27;19919;-71
2023/06/10 00:48:25;;;;;;;;;;;23.20;85.50;;;;;;8469693;27;19927;-71
2023/06/10 00:52:28;;;;;;;;;;;23.20;85.40;;;;;;8467317;27;19928;-71
2023/06/10 00:56:30;;;;;;;;;;;23.20;85.40;;;;;;8453386;27;19934;-72
2023/06/10 01:00:31;;;;;;;;;;;23.10;85.20;;;;;;8450005;27;21061;-71
2023/06/10 01:04:33;;;;;;;;;;;23.10;85.20;;;;;;8462257;27;20436;-71
2023/06/10 01:08:38;;;;;;;;;;;23.00;85.20;;;;;;8452254;27;19974;-71
2023/06/10 01:12:48;;;;;;;;;;;23.00;85.20;;;;;;8463980;27;20000;-71
2023/06/10 01:16:52;;;;;;;;;;;22.90;85.00;;;;;;8461019;27;19923;-71
2023/06/10 01:20:54;;;;;;;;;;;22.90;85.00;;;;;;8468979;27;19924;-72
2023/06/10 01:24:58;;;;;;;;;;;22.80;84.90;;;;;;8475713;27;19923;-71
2023/06/10 01:29:07;;;;;;;;;;;22.80;84.80;;;;;;8462026;27;20004;-71
2023/06/10 01:33:09;;;;;;;;;;;22.70;84.60;;;;;;8464582;27;19950;-71
2023/06/10 01:37:13;;;;;;;;;;;22.70;84.60;;;;;;8472953;27;20371;-71
2023/06/10 01:41:16;;;;;;;;;;;22.70;84.50;;;;;;8469374;27;19932;-71
2023/06/10 01:45:17;;;;;;;;;;;22.60;84.30;;;;;;8468953;27;19924;-71
2023/06/10 01:49:19;;;;;;;;;;;22.60;84.30;;;;;;8468212;27;19924;-71
2023/06/10 01:53:21;;;;;;;;;;;22.50;84.20;;;;;;8465457;27;20259;-72
2023/06/10 01:57:23;;;;;;;;;;;22.50;84.80;;;;;;8471848;27;19931;-71
2023/06/10 02:01:25;;;;;;;;;;;22.40;84.00;;;;;;8443818;27;19988;-71
2023/06/10 02:05:27;;;;;;;;;;;22.40;84.00;;;;;;8463707;27;20019;-72
2023/06/10 02:09:29;;;;;;;;;;;22.40;83.90;;;;;;8471920;27;19924;-71
2023/06/10 02:13:31;;;;;;;;;;;22.30;83.80;;;;;;8476565;27;20382;-71
2023/06/10 02:17:33;;;;;;;;;;;22.30;83.80;;;;;;8468237;27;20726;-71
2023/06/10 02:21:35;;;;;;;;;;;22.20;83.70;;;;;;8471518;27;19927;-72
2023/06/10 02:25:36;;;;;;;;;;;22.20;83.60;;;;;;8479140;27;19930;-71
2023/06/10 02:29:38;;;;;;;;;;;22.20;83.60;;;;;;8462221;27;20374;-71
2023/06/10 02:33:40;;;;;;;;;;;22.10;83.50;;;;;;8474244;27;20368;-71
2023/06/10 02:37:41;;;;;;;;;;;22.10;83.50;;;;;;8447409;27;19927;-72
2023/06/10 02:41:43;;;;;;;;;;;22.00;83.40;;;;;;8469823;27;19930;-72
2023/06/10 02:45:45;;;;;;;;;;;22.00;83.40;;;;;;8472101;27;19973;-71
2023/06/10 02:49:46;;;;;;;;;;;21.90;83.30;;;;;;8469394;27;20025;-71
2023/06/10 02:53:48;;;;;;;;;;;21.80;83.20;;;;;;8467302;27;19927;-70
2023/06/10 02:57:50;;;;;;;;;;;21.80;83.30;;;;;;8467153;27;20371;-71
2023/06/10 03:01:52;;;;;;;;;;;21.70;83.30;;;;;;8445128;27;20345;-72
2023/06/10 03:05:56;;;;;;;;;;;21.70;83.30;;;;;;8461828;27;19927;-72
2023/06/10 03:09:58;;;;;;;;;;;21.70;83.40;;;;;;8460396;27;19963;-72
2023/06/10 03:13:59;;;;;;;;;;;21.60;83.40;;;;;;8466719;27;19927;-71
2023/06/10 03:18:02;;;;;;;;;;;21.50;83.30;;;;;;8467359;28;19928;-71
2023/06/10 03:22:08;;;;;;;;;;;21.50;84.00;;;;;;8436859;28;20283;-72
2023/06/10 03:26:11;;;;;;;;;;;21.40;83.40;;;;;;8402611;28;19981;-72
2023/06/10 03:30:13;;;;;;;;;;;21.40;83.40;;;;;;8390811;28;20914;-72
2023/06/10 03:34:15;;;;;;;;;;;21.40;83.50;;;;;;8402523;28;20026;-71
2023/06/10 03:38:17;;;;;;;;;;;21.30;83.40;;;;;;8405389;28;20296;-71
2023/06/10 03:42:19;;;;;;;;;;;21.30;83.50;;;;;;8402504;28;19960;-72
2023/06/10 03:46:20;;;;;;;;;;;21.20;83.50;;;;;;8411799;28;20267;-72
2023/06/10 03:50:23;;;;;;;;;;;21.20;83.50;;;;;;8392368;28;19924;-71
2023/06/10 03:54:25;;;;;;;;;;;21.20;83.60;;;;;;8362937;28;19924;-71
2023/06/10 03:58:27;;;;;;;;;;;21.10;83.70;;;;;;8393688;28;19932;-72
2023/06/10 04:02:28;;;;;;;;;;;21.10;83.90;;;;;;8388827;28;20015;-72
2023/06/10 04:06:30;;;;;;;;;;;21.10;84.00;;;;;;8390634;28;19928;-71
2023/06/10 04:10:32;;;;;;;;;;;21.10;84.20;;;;;;8400605;28;20647;-71
2023/06/10 04:14:34;;;;;;;;;;;21.10;84.30;;;;;;8376543;28;20693;-72
2023/06/10 04:23:39;;;;;;;;;;;21.10;84.60;;;;;;8415626;28;20012;-71
2023/06/10 04:27:41;;;;;;;;;;;21.10;84.80;;;;;;8431011;28;20399;-71
2023/06/10 04:31:43;;;;;;;;;;;21.10;85.00;;;;;;8385953;28;19932;-71
2023/06/10 04:35:47;;;;;;;;;;;21.10;85.30;;;;;;8419725;28;19934;-72
2023/06/10 04:39:49;;;;;;;;;;;21.10;85.50;;;;;;8432304;28;19924;-72
2023/06/10 04:43:51;;;;;;;;;;;21.20;85.80;;;;;;8416700;28;20298;-72
2023/06/10 04:47:55;;;;;;;;;;;21.20;86.10;;;;;;8420776;28;19931;-72
2023/06/10 04:51:57;;;;;;;;;;;21.20;86.20;;;;;;8438924;28;19935;-71
2023/06/10 04:55:59;;;;;;;;;;;21.20;86.30;;;;;;8447237;28;19928;-71
2023/06/10 05:00:00;;;;;;;;;;;21.30;86.60;;;;;;8440572;28;20009;-71
2023/06/10 05:04:04;;;;;;;;;;;21.30;86.90;;;;;;8442598;28;19931;-72
2023/06/10 05:08:06;;;;;;;;;;;21.30;87.10;;;;;;8418843;28;19924;-72
2023/06/10 05:12:09;;;;;;;;;;;21.30;87.30;;;;;;8453030;28;20018;-72
2023/06/10 05:16:11;;;;;;;;;;;21.40;87.60;;;;;;8445809;28;19931;-73
2023/06/10 05:20:13;;;;;;;;;;;21.40;87.80;;;;;;8433592;28;19928;-72
2023/06/10 05:24:15;;;;;;;;;;;21.40;88.00;;;;;;8446307;28;19949;-71
2023/06/10 05:28:17;;;;;;;;;;;21.50;88.20;;;;;;8439956;28;19938;-73
2023/06/10 05:32:18;;;;;;;;;;;21.50;88.50;;;;;;8440679;28;19969;-72
2023/06/10 05:36:20;;;;;;;;;;;21.60;88.70;;;;;;8443503;28;19931;-71
2023/06/10 05:40:22;;;;;;;;;;;21.60;88.80;;;;;;8445743;28;19991;-71
2023/06/10 05:44:24;;;;;;;;;;;21.70;89.10;;;;;;8443881;28;19932;-72
2023/06/10 05:48:25;;;;;;;;;;;21.80;89.40;;;;;;8409791;28;19928;-72
2023/06/10 05:52:27;;;;;;;;;;;21.80;89.60;;;;;;8445741;28;20273;-73
2023/06/10 05:56:29;;;;;;;;;;;22.00;90.00;;;;;;8453178;28;19931;-72
2023/06/10 06:00:31;;;;;;;;;;;22.00;90.00;;;;;;8434587;28;19925;-72
2023/06/10 06:04:33;;;;;;;;;;;22.10;90.10;;;;;;8439256;28;20362;-72
2023/06/10 06:08:35;;;;;;;;;;;22.20;90.50;;;;;;8442244;28;19971;-73
2023/06/10 06:12:36;;;;;;;;;;;22.30;90.30;;;;;;8448013;28;19932;-73
2023/06/10 06:16:38;;;;;;;;;;;22.40;90.40;;;;;;8436625;28;19924;-71
2023/06/10 06:20:40;;;;;;;;;;;22.50;90.80;;;;;;8405586;28;19928;-72
2023/06/10 06:24:42;;;;;;;;;;;22.50;90.60;;;;;;8449262;28;19923;-71
2023/06/10 06:28:43;;;;;;;;;;;22.60;90.70;;;;;;8421288;28;19975;-72
2023/06/10 06:32:45;;;;;;;;;;;22.70;90.80;;;;;;8441713;28;20279;-73
2023/06/10 06:36:47;;;;;;;;;;;22.80;90.90;;;;;;8434803;28;19930;-73
2023/06/10 06:40:48;;;;;;;;;;;22.80;90.90;;;;;;8441735;27;19924;-71
2023/06/10 06:44:50;;;;;;;;;;;22.90;91.00;;;;;;8442312;28;19924;-71
2023/06/10 06:48:52;;;;;;;;;;;23.10;91.10;;;;;;8422828;28;20376;-71
2023/06/10 06:52:54;;;;;;;;;;;23.20;91.60;;;;;;8421768;28;19928;-72
2023/06/10 06:56:55;;;;;;;;;;;23.30;91.30;;;;;;8438988;28;19924;-71
2023/06/10 07:00:57;;;;;;;;;;;23.40;91.40;;;;;;8441710;28;20375;-72
2023/06/10 07:04:59;;;;;;;;;;;23.60;91.50;;;;;;8427534;28;19948;-71
2023/06/10 07:09:01;;;;;;;;;;;23.70;91.60;;;;;;8426706;28;20415;-72
2023/06/10 07:13:02;;;;;;;;;;;23.80;91.60;;;;;;8423834;28;19932;-72
2023/06/10 07:17:04;;;;;;;;;;;23.90;91.60;;;;;;8429730;28;19924;-72
2023/06/10 07:21:06;;;;;;;;;;;24.00;91.70;;;;;;8425287;28;19923;-72
2023/06/10 07:25:08;;;;;;;;;;;24.10;91.80;;;;;;8448695;28;19928;-73
2023/06/10 07:29:10;;;;;;;;;;;24.20;91.80;;;;;;8456955;28;19924;-71
2023/06/10 07:38:16;;;;;;;;;;;24.50;91.90;;;;;;8451173;28;20282;-71
2023/06/10 07:42:18;;;;;;;;;;;24.60;91.90;;;;;;8445506;28;19961;-71
2023/06/10 07:46:21;;;;;;;;;;;24.70;92.00;;;;;;8453110;28;20904;-71
2023/06/10 07:50:23;;;;;;;;;;;24.80;92.00;;;;;;8415754;28;19924;-71
2023/06/10 07:54:25;;;;;;;;;;;24.80;91.90;;;;;;8429311;28;19931;-71
2023/06/10 07:58:29;;;;;;;;;;;24.90;92.10;;;;;;8453089;28;19928;-71
2023/06/10 08:02:31;;;;;;;;;;;25.00;92.10;;;;;;8451567;28;19930;-71
2023/06/10 08:06:33;;;;;;;;;;;25.10;92.10;;;;;;8443518;28;19977;-71
2023/06/10 08:10:35;;;;;;;;;;;25.20;92.10;;;;;;8437176;28;19923;-71
2023/06/10 08:14:36;;;;;;;;;;;25.20;92.00;;;;;;8438237;28;19970;-71
2023/06/10 08:18:38;;;;;;;;;;;25.30;92.10;;;;;;8445841;28;19944;-71
2023/06/10 08:22:40;;;;;;;;;;;25.30;92.10;;;;;;8441580;28;19931;-71
2023/06/10 08:26:42;;;;;;;;;;;25.40;92.10;;;;;;8451433;28;19939;-72
2023/06/10 08:30:44;;;;;;;;;;;25.50;92.20;;;;;;8450290;28;19928;-72
2023/06/10 08:34:45;;;;;;;;;;;25.50;92.10;;;;;;8460284;28;19931;-71
2023/06/10 08:38:47;;;;;;;;;;;25.60;92.10;;;;;;8459863;28;19924;-71
2023/06/10 08:42:52;;;;;;;;;;;25.60;92.10;;;;;;8436951;28;19928;-72
2023/06/10 08:46:55;;;;;;;;;;;25.60;92.10;;;;;;8453697;28;19931;-71
2023/06/10 08:50:58;;;;;;;;;;;25.70;92.10;;;;;;8417443;28;19932;-71
2023/06/10 08:55:02;;;;;;;;;;;25.80;92.20;;;;;;8434982;28;19935;-71
2023/06/10 08:59:05;;;;;;;;;;;25.90;92.20;;;;;;8464551;28;19931;-71
2023/06/10 09:03:08;;;;;;;;;;;25.90;92.20;;;;;;8448659;28;19924;-71
2023/06/10 09:07:10;;;;;;;;;;;26.00;92.20;;;;;;8424502;28;19928;-72
2023/06/10 09:11:12;;;;;;;;;;;26.10;92.20;;;;;;8413896;28;19924;-71
2023/06/10 09:15:14;;;;;;;;;;;26.20;92.20;;;;;;8411320;28;20380;-71
2023/06/10 09:19:16;;;;;;;;;;;26.20;92.20;;;;;;8413088;28;19924;-71
2023/06/10 09:23:18;;;;;;;;;;;26.30;92.20;;;;;;8411383;28;19938;-72
2023/06/10 09:27:20;;;;;;;;;;;26.30;92.20;;;;;;8406187;28;19924;-72
2023/06/10 09:31:21;;;;;;;;;;;26.40;92.20;;;;;;8409262;28;20027;-72
2023/06/10 09:35:24;;;;;;;;;;;26.50;92.30;;;;;;8410073;28;19925;-71
2023/06/10 09:39:26;;;;;;;;;;;26.60;92.20;;;;;;8409990;28;19967;-71
2023/06/10 09:43:41;;;;;;;;;;;26.70;92.20;;;;;;8405112;28;21046;-71
2023/06/10 09:47:45;;;;;;;;;;;26.70;92.10;;;;;;8390737;28;19924;-72
2023/06/10 09:51:51;;;;;;;;;;;26.80;92.10;;;;;;8406754;28;19932;-71
2023/06/10 09:55:53;;;;;;;;;;;26.90;92.10;;;;;;8422723;27;19924;-70
2023/06/10 09:59:55;;;;;;;;;;;26.90;91.60;;;;;;8408924;28;20273;-70
2023/06/10 10:04:01;;;;;;;;;;;27.00;91.70;;;;;;8408493;28;20329;-72
2023/06/10 10:18:13;;;;;;;;;;;27.20;91.70;;;;;;8412452;28;20418;-71
2023/06/10 10:22:16;;;;;;;;;;;27.30;91.50;;;;;;8410478;28;19939;-72
2023/06/10 10:26:19;;;;;;;;;;;27.30;91.60;;;;;;8407163;28;20368;-71
2023/06/10 10:30:22;;;;;;;;;;;27.40;91.50;;;;;;8397998;28;20379;-71
2023/06/10 10:34:28;;;;;;;;;;;27.50;91.50;;;;;;8410982;28;19927;-71
2023/06/10 10:38:31;;;;;;;;;;;27.50;91.20;;;;;;8404372;28;20512;-72
2023/06/10 10:42:33;;;;;;;;;;;27.60;91.30;;;;;;8407315;28;20026;-73
2023/06/10 10:46:42;;;;;;;;;;;27.60;91.00;;;;;;8391357;28;19936;-71
2023/06/10 10:50:55;;;;;;;;;;;27.70;90.60;;;;;;8391842;28;20459;-71
2023/06/10 10:54:57;;;;;;;;;;;27.70;91.00;;;;;;8405494;28;19935;-71
2023/06/10 10:59:05;;;;;;;;;;;27.80;91.00;;;;;;8422146;28;20162;-71
2023/06/10 11:03:07;;;;;;;;;;;27.90;90.90;;;;;;8409330;28;19978;-71
2023/06/10 11:07:14;;;;;;;;;;;28.00;91.00;;;;;;8406375;28;19935;-71
2023/06/10 11:11:20;;;;;;;;;;;28.00;90.50;;;;;;8412716;28;19932;-71
2023/06/10 11:15:27;;;;;;;;;;;28.10;90.60;;;;;;8407247;28;19924;-72
2023/06/10 11:19:32;;;;;;;;;;;28.10;90.40;;;;;;8390039;28;19994;-71
2023/06/10 11:23:38;;;;;;;;;;;28.20;90.30;;;;;;8399176;28;19924;-74
2023/06/10 11:27:40;;;;;;;;;;;28.20;90.10;;;;;;8416416;28;20364;-71
2023/06/10 11:31:43;;;;;;;;;;;28.20;89.90;;;;;;8405662;28;20283;-72
2023/06/10 11:35:45;;;;;;;;;;;28.30;89.70;;;;;;8400388;28;19932;-71
2023/06/10 11:39:47;;;;;;;;;;;28.40;90.00;;;;;;8404104;28;19969;-73
2023/06/10 11:43:49;;;;;;;;;;;28.50;89.20;;;;;;8404823;28;19925;-71
2023/06/10 11:47:57;;;;;;;;;;;28.60;89.30;;;;;;8407248;28;19924;-71
2023/06/10 11:51:59;;;;;;;;;;;28.60;89.50;;;;;;8403569;28;20485;-72
2023/06/10 11:56:01;;;;;;;;;;;28.60;88.80;;;;;;8404715;28;19932;-72
2023/06/10 12:00:07;;;;;;;;;;;28.60;88.50;;;;;;8389447;28;19948;-71
2023/06/10 12:04:13;;;;;;;;;;;28.70;88.60;;;;;;8407878;28;19924;-71
2023/06/10 12:08:15;;;;;;;;;;;28.70;87.90;;;;;;8402721;28;19924;-72
2023/06/10 12:12:18;;;;;;;;;;;28.80;87.50;;;;;;8407668;28;19940;-72
2023/06/10 12:16:20;;;;;;;;;;;28.80;88.20;;;;;;8408222;28;19962;-71
2023/06/10 12:20:27;;;;;;;;;;;28.90;88.00;;;;;;8407132;28;19970;-72
2023/06/10 12:24:28;;;;;;;;;;;28.90;87.70;;;;;;8404017;28;19924;-72
2023/06/10 12:28:30;;;;;;;;;;;29.00;87.30;;;;;;8401326;28;19928;-71
2023/06/10 12:32:35;;;;;;;;;;;29.00;86.50;;;;;;8408281;28;19958;-71
2023/06/10 12:36:37;;;;;;;;;;;29.00;85.80;;;;;;8414194;28;19962;-71
2023/06/10 12:40:43;;;;;;;;;;;29.00;85.90;;;;;;8411115;28;19989;-70
2023/06/10 12:44:45;;;;;;;;;;;29.00;85.20;;;;;;8411444;28;20391;-71
2023/06/10 12:48:51;;;;;;;;;;;29.00;85.50;;;;;;8427718;27;19932;-72
2023/06/10 12:52:53;;;;;;;;;;;29.10;85.30;;;;;;8423600;28;19963;-71
2023/06/10 12:56:54;;;;;;;;;;;29.10;85.40;;;;;;8412531;28;19924;-70
2023/06/10 13:00:56;;;;;;;;;;;29.10;84.30;;;;;;8411958;28;19935;-71
2023/06/10 13:04:58;;;;;;;;;;;29.10;84.60;;;;;;8406596;28;19928;-72
2023/06/10 13:09:00;;;;;;;;;;;29.20;84.00;;;;;;8413567;28;19932;-73
2023/06/10 13:13:05;;;;;;;;;;;29.20;83.50;;;;;;8403929;28;19932;-71
2023/06/10 13:17:06;;;;;;;;;;;29.20;82.90;;;;;;8410958;28;19925;-71
2023/06/10 13:21:08;;;;;;;;;;;29.20;82.90;;;;;;8409719;28;20011;-71
2023/06/10 13:25:10;;;;;;;;;;;29.30;82.80;;;;;;8421663;28;21017;-72
2023/06/10 13:29:14;;;;;;;;;;;29.30;82.90;;;;;;8409947;28;20275;-73
2023/06/10 13:33:15;;;;;;;;;;;29.40;82.80;;;;;;8405079;28;19932;-71
2023/06/10 13:37:17;;;;;;;;;;;29.40;82.80;;;;;;8407848;28;20767;-72
2023/06/10 13:41:19;;;;;;;;;;;29.50;82.60;;;;;;8398078;28;20335;-72
2023/06/10 13:45:21;;;;;;;;;;;29.50;81.70;;;;;;8406774;28;19967;-72
2023/06/10 13:49:23;;;;;;;;;;;29.50;82.20;;;;;;8410757;28;19927;-71
2023/06/10 13:53:24;;;;;;;;;;;29.60;81.60;;;;;;8410525;28;19924;-72
2023/06/10 13:57:26;;;;;;;;;;;29.50;80.90;;;;;;8406346;28;19932;-71
2023/06/10 14:01:28;;;;;;;;;;;29.60;81.30;;;;;;8402286;28;19924;-73
2023/06/10 14:05:29;;;;;;;;;;;29.60;80.10;;;;;;8403586;28;20295;-73
2023/06/10 14:09:32;;;;;;;;;;;29.60;81.00;;;;;;8404315;28;19930;-72
2023/06/10 14:13:34;;;;;;;;;;;29.70;81.10;;;;;;8405052;28;19939;-73
2023/06/10 14:17:36;;;;;;;;;;;29.70;80.50;;;;;;8405357;28;19929;-71
2023/06/10 14:21:37;;;;;;;;;;;29.80;79.90;;;;;;8407758;28;22840;-71
2023/06/10 14:25:39;;;;;;;;;;;29.80;80.00;;;;;;8400498;28;19935;-71
2023/06/10 14:29:41;;;;;;;;;;;29.80;79.00;;;;;;8403282;28;19939;-72
2023/06/10 14:33:43;;;;;;;;;;;29.90;79.20;;;;;;8413850;28;19930;-71
2023/06/10 14:37:45;;;;;;;;;;;29.90;79.00;;;;;;8398367;28;19931;-74
2023/06/10 14:41:47;;;;;;;;;;;30.00;79.10;;;;;;8382333;28;19928;-72
2023/06/10 14:45:50;;;;;;;;;;;30.00;79.00;;;;;;8407853;28;20375;-73
2023/06/10 14:49:52;;;;;;;;;;;30.10;78.50;;;;;;8402724;28;19939;-73
2023/06/10 14:53:54;;;;;;;;;;;30.20;78.60;;;;;;8407108;28;19950;-73
2023/06/10 14:57:57;;;;;;;;;;;30.20;77.60;;;;;;8406584;28;20398;-72
2023/06/10 15:02:00;;;;;;;;;;;30.10;77.90;;;;;;8406847;28;19932;-73
2023/06/10 15:06:02;;;;;;;;;;;30.10;77.70;;;;;;8402914;28;19938;-74
2023/06/10 15:10:05;;;;;;;;;;;30.10;77.20;;;;;;8417009;28;19986;-73
2023/06/10 15:14:06;;;;;;;;;;;30.20;77.50;;;;;;8405684;28;19925;-73
2023/06/10 15:18:08;;;;;;;;;;;30.20;76.70;;;;;;8388353;28;19960;-73
2023/06/10 15:22:11;;;;;;;;;;;30.30;76.60;;;;;;8391294;28;19924;-73
2023/06/10 15:26:13;;;;;;;;;;;30.30;77.20;;;;;;8406475;28;19932;-73
2023/06/10 15:30:15;;;;;;;;;;;30.40;76.90;;;;;;8399718;28;20795;-72
2023/06/10 15:34:16;;;;;;;;;;;30.40;77.10;;;;;;8408106;28;19924;-72
2023/06/10 15:38:18;;;;;;;;;;;30.50;76.10;;;;;;8403996;28;19924;-73
2023/06/10 15:42:20;;;;;;;;;;;30.50;75.40;;;;;;8405181;28;20391;-74
2023/06/10 15:46:22;;;;;;;;;;;30.60;76.70;;;;;;8407199;28;20375;-73
2023/06/10 15:50:24;;;;;;;;;;;30.70;76.20;;;;;;8400526;28;20018;-73
2023/06/10 15:54:26;;;;;;;;;;;30.80;75.10;;;;;;8407022;28;19928;-73
2023/06/10 15:58:28;;;;;;;;;;;31.00;75.80;;;;;;8392888;28;20283;-73
2023/06/10 16:02:29;;;;;;;;;;;31.20;75.40;;;;;;8405214;28;19932;-74
2023/06/10 16:06:34;;;;;;;;;;;31.40;75.70;;;;;;8405914;28;19924;-74
2023/06/10 16:10:36;;;;;;;;;;;31.70;75.60;;;;;;8412678;28;19927;-72
2023/06/10 16:14:37;;;;;;;;;;;31.90;75.70;;;;;;8412173;28;19924;-72
2023/06/10 16:18:39;;;;;;;;;;;32.00;74.50;;;;;;8422435;28;20265;-73
2023/06/10 16:22:41;;;;;;;;;;;32.10;74.60;;;;;;8405550;28;19932;-71
2023/06/10 16:26:43;;;;;;;;;;;32.20;74.10;;;;;;8409353;28;19928;-72
2023/06/10 16:30:44;;;;;;;;;;;32.50;74.20;;;;;;8403058;28;20561;-72
2023/06/10 16:34:46;;;;;;;;;;;32.80;74.20;;;;;;8413833;28;19977;-72
2023/06/10 16:38:48;;;;;;;;;;;33.10;75.80;;;;;;8411635;28;19924;-72
2023/06/10 16:42:50;;;;;;;;;;;33.30;76.40;;;;;;8401147;28;19928;-73
2023/06/10 16:46:51;;;;;;;;;;;33.50;77.30;;;;;;8415969;28;19974;-71
2023/06/10 16:50:53;;;;;;;;;;;33.60;77.90;;;;;;8419580;27;19932;-71
2023/06/10 16:54:55;;;;;;;;;;;33.60;78.30;;;;;;8409333;28;19947;-72
2023/06/10 16:58:57;;;;;;;;;;;33.60;78.80;;;;;;8411814;28;19928;-71
2023/06/10 17:02:59;;;;;;;;;;;33.50;79.10;;;;;;8408050;28;20307;-71
2023/06/10 17:07:01;;;;;;;;;;;33.30;77.90;;;;;;8408445;28;19998;-73
2023/06/10 17:11:03;;;;;;;;;;;33.00;78.30;;;;;;8413689;28;19929;-72
2023/06/10 17:15:05;;;;;;;;;;;32.70;76.60;;;;;;8424025;27;19966;-72
2023/06/10 17:19:07;;;;;;;;;;;32.40;76.10;;;;;;8405504;28;20409;-71
2023/06/10 17:23:10;;;;;;;;;;;32.20;75.70;;;;;;8402306;28;19924;-73
2023/06/10 17:27:11;;;;;;;;;;;32.00;74.80;;;;;;8403596;28;19939;-74
2023/06/10 17:31:13;;;;;;;;;;;31.70;73.30;;;;;;8408430;28;19987;-73
2023/06/10 17:35:15;;;;;;;;;;;31.60;72.30;;;;;;8405801;28;20649;-72
2023/06/10 17:39:16;;;;;;;;;;;31.50;72.20;;;;;;8399684;28;19963;-73
2023/06/10 17:43:20;;;;;;;;;;;31.30;72.20;;;;;;8407048;28;20358;-72
2023/06/10 17:47:21;;;;;;;;;;;31.20;71.60;;;;;;8406823;28;19932;-72
2023/06/10 17:51:24;;;;;;;;;;;31.10;71.40;;;;;;8407752;28;21772;-72
2023/06/10 17:55:25;;;;;;;;;;;31.00;70.60;;;;;;8404247;28;19970;-73
2023/06/10 17:59:27;;;;;;;;;;;30.90;71.10;;;;;;8417587;27;19963;-71
2023/06/10 18:03:28;;;;;;;;;;;30.90;70.50;;;;;;8409180;28;19924;-72
2023/06/10 18:07:31;;;;;;;;;;;30.80;70.10;;;;;;8424079;27;19928;-71
2023/06/10 18:11:33;;;;;;;;;;;30.80;71.10;;;;;;8388841;28;19978;-72
2023/06/10 18:15:34;;;;;;;;;;;30.70;69.50;;;;;;8403510;28;20037;-73
2023/06/10 18:19:38;;;;;;;;;;;30.60;70.10;;;;;;8407005;28;19935;-73
2023/06/10 18:23:40;;;;;;;;;;;30.60;69.90;;;;;;8404417;28;19931;-71
2023/06/10 18:27:42;;;;;;;;;;;30.50;69.70;;;;;;8405388;28;19951;-74
2023/06/10 18:31:43;;;;;;;;;;;30.40;69.60;;;;;;8406174;28;19939;-72
2023/06/10 18:35:45;;;;;;;;;;;30.30;68.90;;;;;;8403914;28;20057;-71
2023/06/10 18:39:47;;;;;;;;;;;30.20;68.90;;;;;;8404856;28;19928;-71
2023/06/10 18:43:48;;;;;;;;;;;30.20;68.90;;;;;;8399601;28;20291;-71
2023/06/10 18:47:50;;;;;;;;;;;30.10;68.80;;;;;;8407654;28;19931;-72
2023/06/10 18:51:58;;;;;;;;;;;30.00;68.80;;;;;;8408969;28;19948;-72
2023/06/10 18:56:03;;;;;;;;;;;29.90;68.30;;;;;;8408637;28;19928;-72
2023/06/10 19:00:05;;;;;;;;;;;29.80;68.40;;;;;;8406959;28;20276;-72
2023/06/10 19:04:07;;;;;;;;;;;29.70;68.40;;;;;;8402187;28;19989;-72
2023/06/10 19:08:09;;;;;;;;;;;29.60;68.30;;;;;;8402522;28;19929;-71
2023/06/10 19:12:11;;;;;;;;;;;29.60;68.20;;;;;;8407743;28;19928;-72
2023/06/10 19:16:12;;;;;;;;;;;29.50;68.00;;;;;;8399923;28;19929;-71
2023/06/10 19:20:14;;;;;;;;;;;29.40;68.00;;;;;;8406427;28;19928;-71
2023/06/10 19:24:16;;;;;;;;;;;29.30;67.80;;;;;;8404908;28;19971;-71
2023/06/10 19:28:18;;;;;;;;;;;29.20;67.80;;;;;;8407761;28;19924;-71
2023/06/10 19:32:19;;;;;;;;;;;29.10;67.70;;;;;;8411180;28;19928;-73
2023/06/10 19:36:21;;;;;;;;;;;29.00;67.70;;;;;;8403261;28;19938;-72
2023/06/10 19:40:23;;;;;;;;;;;28.90;67.70;;;;;;8417081;28;19935;-72
2023/06/10 19:44:25;;;;;;;;;;;28.80;67.80;;;;;;8403234;28;19951;-71
2023/06/10 19:48:26;;;;;;;;;;;28.60;67.90;;;;;;8409335;28;19936;-72
2023/06/10 19:52:28;;;;;;;;;;;28.50;67.90;;;;;;8409477;28;19954;-71
2023/06/10 19:56:30;;;;;;;;;;;28.30;67.80;;;;;;8413067;28;19928;-72
2023/06/10 20:00:31;;;;;;;;;;;28.20;68.30;;;;;;8410780;28;19929;-71
2023/06/10 20:04:33;;;;;;;;;;;28.10;67.70;;;;;;8413891;28;19924;-71
2023/06/10 20:08:35;;;;;;;;;;;28.00;67.70;;;;;;8410557;28;19925;-72
2023/06/10 20:12:37;;;;;;;;;;;27.90;68.30;;;;;;8396816;28;19925;-72
2023/06/10 20:16:38;;;;;;;;;;;27.80;67.50;;;;;;8422616;27;19935;-71
2023/06/10 20:20:40;;;;;;;;;;;27.70;67.40;;;;;;8410747;28;19959;-72
2023/06/10 20:24:42;;;;;;;;;;;27.60;67.30;;;;;;8411760;28;20023;-71
2023/06/10 20:28:44;;;;;;;;;;;27.40;67.10;;;;;;8425425;27;19928;-72
2023/06/10 20:32:45;;;;;;;;;;;27.40;67.00;;;;;;8407305;28;20321;-71
2023/06/10 20:36:47;;;;;;;;;;;27.20;67.00;;;;;;8411128;28;20403;-72
2023/06/10 20:40:49;;;;;;;;;;;27.20;67.00;;;;;;8405208;28;19940;-72
2023/06/10 20:44:51;;;;;;;;;;;27.10;66.90;;;;;;8412854;28;19978;-71
2023/06/10 21:04:04;;;;;;;;;;;26.80;66.50;;;;;;8439619;28;20335;-71
2023/06/10 21:08:06;;;;;;;;;;;26.70;66.50;;;;;;8410057;28;20371;-72
2023/06/10 21:12:08;;;;;;;;;;;26.60;66.90;;;;;;8429954;28;19924;-72
2023/06/10 21:16:10;;;;;;;;;;;26.50;66.30;;;;;;8439825;28;19924;-71
2023/06/10 21:20:12;;;;;;;;;;;26.50;66.20;;;;;;8429269;28;19931;-72
2023/06/10 21:24:13;;;;;;;;;;;26.40;66.10;;;;;;8439960;28;19931;-71
2023/06/10 21:28:15;;;;;;;;;;;26.30;66.00;;;;;;8441444;28;20030;-71
2023/06/10 21:32:17;;;;;;;;;;;26.30;66.00;;;;;;8436099;28;19950;-71
2023/06/10 21:36:19;;;;;;;;;;;26.20;65.90;;;;;;8422269;28;20338;-72
2023/06/10 21:40:21;;;;;;;;;;;26.10;65.90;;;;;;8434023;28;19978;-71
2023/06/10 21:44:23;;;;;;;;;;;26.10;65.90;;;;;;8407719;28;19931;-72
2023/06/10 21:48:24;;;;;;;;;;;26.00;65.80;;;;;;8426401;28;19932;-72
2023/06/10 21:52:26;;;;;;;;;;;26.00;65.90;;;;;;8450122;28;19924;-72
2023/06/10 21:56:31;;;;;;;;;;;25.90;65.90;;;;;;8447419;28;19924;-72
2023/06/10 22:00:33;;;;;;;;;;;25.80;65.80;;;;;;8439580;28;19948;-71
2023/06/10 22:04:35;;;;;;;;;;;25.80;65.90;;;;;;8449112;28;19923;-71
2023/06/10 22:08:36;;;;;;;;;;;25.70;65.80;;;;;;8416122;28;19931;-72
2023/06/10 22:12:38;;;;;;;;;;;25.70;65.90;;;;;;8419469;28;19924;-72
2023/06/10 22:16:40;;;;;;;;;;;25.60;65.90;;;;;;8420010;28;20351;-71
2023/06/10 22:20:43;;;;;;;;;;;25.60;66.00;;;;;;8448118;28;20431;-72
2023/06/10 22:24:48;;;;;;;;;;;25.60;66.10;;;;;;8409589;28;19994;-71
2023/06/10 22:28:50;;;;;;;;;;;25.50;66.00;;;;;;8415200;28;19928;-72
2023/06/10 22:32:52;;;;;;;;;;;25.50;66.10;;;;;;8429284;28;22520;-71
2023/06/10 22:36:53;;;;;;;;;;;25.40;66.10;;;;;;8433383;28;20330;-72
2023/06/10 22:40:55;;;;;;;;;;;25.30;66.10;;;;;;8427335;28;19924;-71
2023/06/10 22:44:57;;;;;;;;;;;25.30;66.20;;;;;;8441543;28;19931;-71
2023/06/10 22:48:58;;;;;;;;;;;25.20;66.10;;;;;;8409599;28;19924;-71
2023/06/10 22:57:57;;;;;;;;;;;25.20;66.30;;;;;;8420805;28;19986;-71
2023/06/10 23:01:59;;;;;;;;;;;25.10;66.30;;;;;;8431213;28;19947;-71
2023/06/10 23:06:00;;;;;;;;;;;25.10;66.40;;;;;;8418194;28;20515;-71
2023/06/10 23:10:02;;;;;;;;;;;25.10;66.50;;;;;;8434926;28;19989;-72
2023/06/10 23:14:04;;;;;;;;;;;25.10;66.50;;;;;;8445272;28;19928;-72
2023/06/10 23:18:05;;;;;;;;;;;25.00;66.50;;;;;;8422450;28;20307;-72
2023/06/10 23:22:08;;;;;;;;;;;25.00;66.60;;;;;;8419163;28;19928;-72
2023/06/10 23:26:10;;;;;;;;;;;24.90;66.50;;;;;;8422454;28;19924;-71
2023/06/10 23:30:12;;;;;;;;;;;24.90;66.60;;;;;;8397373;28;20434;-71
2023/06/10 23:34:14;;;;;;;;;;;24.80;66.60;;;;;;8413466;28;19928;-71
2023/06/10 23:38:15;;;;;;;;;;;24.80;66.70;;;;;;8415515;28;20375;-71
2023/06/10 23:42:17;;;;;;;;;;;24.80;66.90;;;;;;8435450;28;19924;-71
